Time;durP1;ratioP1;P1;durP2;ratioP2;P2;SDS_P1;SDS_P2;PMS_P1;PMS_P2;Temp;Humidity;BMP_temperature;BMP_pressure;BME280_temperature;BME280_humidity;BME280_pressure;Samples;Min_cycle;Max_cycle;Signal;HPM_P1;HPM_P2
2023/09/26 00:01:45;;;;;;;0.80;0.40;;;;;;;-143.84;86.86;45094.78;5050988;28;20458;-57
2023/09/26 00:04:14;;;;;;;0.90;0.60;;;;;;;-143.84;86.86;45111.91;5066004;28;20441;-57
2023/09/26 00:06:41;;;;;;;1.03;0.93;;;;;;;-143.84;87.09;45123.34;5050611;28;20480;-57
2023/09/26 00:09:09;;;;;;;1.20;0.60;;;;;;;-143.84;86.91;45111.91;5046525;28;20446;-57
2023/09/26 00:11:36;;;;;;;1.03;0.70;;;;;;;-143.84;86.95;45113.81;5049917;28;20907;-57
2023/09/26 00:14:06;;;;;;;1.73;1.00;;;;;;;-143.84;87.08;45092.88;5063616;28;20454;-57
2023/09/26 00:16:33;;;;;;;0.90;0.60;;;;;;;-143.84;87.29;45130.94;5058936;28;20450;-57
2023/09/26 00:19:00;;;;;;;1.30;1.07;;;;;;;-143.84;87.38;45115.72;5056635;28;20516;-57
2023/09/26 00:21:29;;;;;;;0.90;0.70;;;;;;;-143.84;87.59;45117.63;5059136;28;21169;-57
2023/09/26 00:23:56;;;;;;;0.90;0.60;;;;;;;-143.84;87.87;45123.34;5053652;28;20460;-57
2023/09/26 00:26:25;;;;;;;1.40;0.87;;;;;;;-143.84;88.16;45110.00;5058948;28;20875;-57
2023/09/26 00:28:52;;;;;;;0.90;0.57;;;;;;;-143.84;89.04;45136.66;5055426;28;20481;-57
2023/09/26 00:31:19;;;;;;;1.13;1.00;;;;;;;-143.84;89.35;45127.13;5054589;28;20457;-57
2023/09/26 00:33:47;;;;;;;1.00;0.80;;;;;;;-143.84;89.57;45127.13;5058185;28;20498;-57
2023/09/26 00:36:14;;;;;;;1.20;0.90;;;;;;;-143.84;89.61;45144.28;5057994;28;20458;-57
2023/09/26 00:38:43;;;;;;;1.10;0.50;;;;;;;-143.84;90.06;45127.13;5055095;28;20503;-57
2023/09/26 00:41:10;;;;;;;0.90;0.70;;;;;;;-143.84;90.50;45130.94;5059766;28;20515;-57
2023/09/26 00:43:37;;;;;;;1.00;0.70;;;;;;;-143.84;90.53;45110.00;5053455;28;20897;-57
2023/09/26 00:46:08;;;;;;;1.23;0.60;;;;;;;-143.84;91.21;45121.44;5057184;28;20504;-57
2023/09/26 00:48:38;;;;;;;1.20;0.80;;;;;;;-143.84;91.43;45140.47;5056305;28;20545;-57
2023/09/26 00:51:07;;;;;;;1.00;0.80;;;;;;;-143.84;91.38;45121.44;5058148;28;20656;-57
2023/09/26 00:53:38;;;;;;;3.20;1.07;;;;;;;-143.84;91.83;45121.44;5058787;28;20449;-57
2023/09/26 00:56:07;;;;;;;0.90;0.67;;;;;;;-143.84;92.47;45113.81;5054307;28;20445;-57
2023/09/26 00:58:35;;;;;;;1.00;0.70;;;;;;;-143.84;92.43;45098.56;5051008;28;20486;-57
2023/09/26 01:01:04;;;;;;;1.43;1.20;;;;;;;-143.84;92.60;45110.00;5055773;28;20453;-57
2023/09/26 01:03:31;;;;;;;0.90;0.60;;;;;;;-143.84;92.46;45113.81;5057001;28;21128;-57
2023/09/26 01:05:59;;;;;;;0.90;0.63;;;;;;;-143.84;92.80;45121.44;5058590;28;20475;-57
2023/09/26 01:08:26;;;;;;;1.30;0.83;;;;;;;-143.84;93.08;45132.84;5052515;28;20465;-57
2023/09/26 01:10:53;;;;;;;0.93;0.80;;;;;;;-143.84;92.84;45108.09;5058847;28;20498;-57
2023/09/26 01:13:21;;;;;;;1.83;1.07;;;;;;;-143.84;92.86;45127.13;5049731;28;20450;-57
2023/09/26 01:15:49;;;;;;;0.90;0.70;;;;;;;-143.84;92.80;45125.22;5049408;28;20446;-57
2023/09/26 01:18:17;;;;;;;0.90;0.50;;;;;;;-143.84;92.86;45125.22;5052889;28;20996;-57
2023/09/26 01:20:45;;;;;;;1.60;1.50;;;;;;;-143.84;93.19;45148.09;5069482;28;20444;-57
2023/09/26 01:23:14;;;;;;;1.37;1.10;;;;;;;-143.84;93.05;45125.22;5070114;28;20483;-57
2023/09/26 01:25:43;;;;;;;1.37;0.90;;;;;;;-143.84;93.00;45123.34;5069545;28;20468;-57
2023/09/26 01:28:12;;;;;;;0.90;0.60;;;;;;;-143.84;93.14;45138.56;5069635;28;20992;-57
2023/09/26 01:30:40;;;;;;;1.30;1.00;;;;;;;-143.84;93.34;45146.19;5069231;28;20465;-57
2023/09/26 01:33:11;;;;;;;1.00;0.73;;;;;;;-143.84;93.42;45129.03;5069277;28;20455;-57
2023/09/26 01:35:38;;;;;;;1.10;0.93;;;;;;;-143.84;93.11;45119.53;5069670;28;20575;-57
2023/09/26 01:38:05;;;;;;;0.90;0.80;;;;;;;-143.84;93.05;45125.22;5069195;28;20436;-57
2023/09/26 01:40:32;;;;;;;1.07;0.90;;;;;;;-143.84;93.42;45132.84;5068609;28;20500;-57
2023/09/26 01:43:01;;;;;;;0.93;0.73;;;;;;;-143.84;93.45;45113.81;5069243;28;20507;-57
2023/09/26 01:45:28;;;;;;;0.90;0.60;;;;;;;-143.84;93.63;45127.13;5069216;28;20821;-57
2023/09/26 01:47:55;;;;;;;0.90;0.53;;;;;;;-143.84;93.54;45117.63;5069086;28;20447;-57
2023/09/26 01:50:23;;;;;;;2.73;1.03;;;;;;;-143.84;93.84;45134.75;5069058;28;20790;-57
2023/09/26 01:52:50;;;;;;;1.47;1.37;;;;;;;-143.84;93.88;45119.53;5068910;28;20440;-57
2023/09/26 01:55:18;;;;;;;1.10;1.00;;;;;;;-143.84;93.60;45134.75;5068711;28;20449;-57
2023/09/26 01:57:46;;;;;;;0.80;0.40;;;;;;;-143.84;93.86;45132.84;5068690;28;20441;-57
2023/09/26 02:00:17;;;;;;;1.10;0.63;;;;;;;-143.84;93.73;45125.22;5068632;28;21051;-57
2023/09/26 02:02:46;;;;;;;0.90;0.77;;;;;;;-143.84;93.82;45106.19;5068797;28;20511;-57
2023/09/26 02:05:14;;;;;;;0.87;0.63;;;;;;;-143.84;93.85;45119.53;5068821;28;20437;-57
2023/09/26 02:07:42;;;;;;;0.90;0.70;;;;;;;-143.84;93.77;45129.03;5068700;28;20862;-57
2023/09/26 02:10:10;;;;;;;1.00;0.70;;;;;;;-143.84;93.52;45130.94;5068728;28;20449;-57
2023/09/26 02:12:38;;;;;;;0.90;0.70;;;;;;;-143.84;93.56;45121.44;5068879;28;20851;-57
2023/09/26 02:15:08;;;;;;;1.10;0.70;;;;;;;-143.84;93.28;45148.09;5068640;28;20452;-57
2023/09/26 02:17:37;;;;;;;2.60;1.37;;;;;;;-143.84;93.25;45125.22;5068556;28;21251;-57
2023/09/26 02:20:10;;;;;;;0.90;0.70;;;;;;;-143.84;92.98;45115.72;5068432;28;20538;-57
2023/09/26 02:22:37;;;;;;;0.90;0.70;;;;;;;-143.84;92.83;45117.63;5068697;28;20950;-57
2023/09/26 02:25:05;;;;;;;1.00;0.90;;;;;;;-143.84;92.85;45153.81;5068435;28;20547;-57
2023/09/26 02:27:32;;;;;;;1.20;0.90;;;;;;;-143.84;93.13;45138.56;5068478;28;20518;-57
2023/09/26 02:29:59;;;;;;;0.80;0.40;;;;;;;-143.84;93.07;45121.44;5068472;28;20847;-57
2023/09/26 02:32:26;;;;;;;1.13;0.97;;;;;;;-143.84;93.13;45144.28;5068328;28;20433;-57
2023/09/26 02:34:55;;;;;;;1.03;0.80;;;;;;;-143.84;93.54;45121.44;5067551;28;20449;-57
2023/09/26 02:37:22;;;;;;;1.50;1.37;;;;;;;-143.84;93.59;45132.84;5067510;28;20444;-57
2023/09/26 02:39:49;;;;;;;1.20;0.80;;;;;;;-143.84;93.69;45106.19;5067571;28;21079;-57
2023/09/26 02:42:16;;;;;;;0.83;0.50;;;;;;;-143.84;93.51;45111.91;5067466;28;20520;-57
2023/09/26 02:44:44;;;;;;;1.00;0.60;;;;;;;-143.84;93.38;45127.13;5067330;28;20444;-57
2023/09/26 02:47:11;;;;;;;0.90;0.67;;;;;;;-143.84;93.02;45121.44;5067946;28;20947;-57
2023/09/26 02:49:38;;;;;;;1.00;0.80;;;;;;;-143.84;92.88;45150.00;5067883;28;20440;-57
2023/09/26 02:52:07;;;;;;;0.93;0.70;;;;;;;-143.84;92.68;45136.66;5071418;28;21045;-57
2023/09/26 02:54:34;;;;;;;1.00;0.70;;;;;;;-143.84;92.84;45125.22;5072179;28;21001;-57
2023/09/26 02:57:01;;;;;;;1.40;1.23;;;;;;;-143.84;92.56;45146.19;5072788;28;20493;-57
2023/09/26 02:59:30;;;;;;;0.80;0.40;;;;;;;-143.84;92.33;45165.22;5072118;28;20476;-57
2023/09/26 03:01:57;;;;;;;1.43;0.90;;;;;;;-143.84;92.39;45129.03;5072303;28;20499;-57
2023/09/26 03:04:24;;;;;;;0.90;0.60;;;;;;;-143.84;92.74;45129.03;5072367;28;20429;-57
2023/09/26 03:06:51;;;;;;;1.03;0.67;;;;;;;-143.84;92.72;45129.03;5072231;28;20444;-57
2023/09/26 03:09:20;;;;;;;1.17;0.63;;;;;;;-143.84;93.19;45130.94;5072145;28;20449;-57
2023/09/26 03:11:47;;;;;;;0.90;0.70;;;;;;;-143.84;93.12;45163.31;5072296;28;20445;-57
2023/09/26 03:14:14;;;;;;;0.97;0.80;;;;;;;-143.84;93.26;45130.94;5072052;28;20441;-57
2023/09/26 03:16:41;;;;;;;1.10;0.70;;;;;;;-143.84;93.11;45138.56;5072183;28;20830;-57
2023/09/26 03:19:09;;;;;;;0.90;0.60;;;;;;;-143.84;93.28;45125.22;5049570;28;20490;-57
2023/09/26 03:21:36;;;;;;;1.50;1.23;;;;;;;-143.84;93.13;45130.94;5032111;28;20489;-57
2023/09/26 03:24:04;;;;;;;1.10;0.70;;;;;;;-143.84;93.34;45110.00;5032155;28;20508;-57
2023/09/26 03:26:32;;;;;;;1.60;1.50;;;;;;;-143.84;93.26;45161.41;5031631;28;20979;-57
2023/09/26 03:28:59;;;;;;;0.90;0.67;;;;;;;-143.84;93.54;45144.28;5031695;28;20439;-57
2023/09/26 03:31:26;;;;;;;0.90;0.77;;;;;;;-143.84;93.18;45121.44;5031997;28;20446;-57
2023/09/26 03:33:53;;;;;;;1.80;0.67;;;;;;;-143.84;93.38;45130.94;5031284;28;20457;-57
2023/09/26 03:36:20;;;;;;;0.90;0.80;;;;;;;-143.84;93.31;45142.38;5031815;28;20434;-57
2023/09/26 03:38:48;;;;;;;0.80;0.47;;;;;;;-143.84;93.58;45125.22;5031667;28;20929;-57
2023/09/26 03:41:15;;;;;;;2.70;0.90;;;;;;;-143.84;93.86;45140.47;5031268;28;20469;-57
2023/09/26 03:43:43;;;;;;;3.67;0.73;;;;;;;-143.84;93.62;45134.75;5031453;28;21010;-57
2023/09/26 03:46:10;;;;;;;0.90;0.67;;;;;;;-143.84;93.92;45123.34;5031550;28;20450;-57
2023/09/26 03:48:37;;;;;;;0.90;0.67;;;;;;;-143.84;93.96;45119.53;5031091;28;20975;-57
2023/09/26 03:51:09;;;;;;;1.07;0.80;;;;;;;-143.84;94.05;45140.47;5031748;28;20505;-57
2023/09/26 03:53:36;;;;;;;1.00;0.70;;;;;;;-143.84;94.19;45130.94;5031491;28;20461;-57
2023/09/26 03:56:03;;;;;;;3.00;2.00;;;;;;;-143.84;94.11;45129.03;5041784;28;20456;-57
2023/09/26 03:58:30;;;;;;;1.50;0.77;;;;;;;-143.84;93.88;45130.94;5051341;28;20503;-57
2023/09/26 04:01:08;;;;;;;0.93;0.63;;;;;;;-143.84;93.85;45113.81;5050977;28;20481;-57
2023/09/26 04:03:35;;;;;;;0.90;0.60;;;;;;;-143.84;93.93;45150.00;5048303;28;20453;-57
2023/09/26 04:06:02;;;;;;;1.20;0.77;;;;;;;-143.84;93.50;45123.34;5051335;28;20446;-57
2023/09/26 04:08:29;;;;;;;1.07;0.67;;;;;;;-143.84;93.20;45117.63;5051159;28;20471;-57
2023/09/26 04:10:57;;;;;;;1.67;0.93;;;;;;;-143.84;93.56;45138.56;5051247;28;20959;-57
2023/09/26 04:13:24;;;;;;;0.90;0.50;;;;;;;-143.84;93.59;45138.56;5050838;28;20437;-57
2023/09/26 04:15:52;;;;;;;2.70;0.83;;;;;;;-143.84;93.64;45129.03;5050787;28;20438;-57
2023/09/26 04:18:21;;;;;;;1.00;0.77;;;;;;;-143.84;93.28;45136.66;5050605;28;20999;-57
2023/09/26 04:20:49;;;;;;;1.20;1.10;;;;;;;-143.84;93.28;45125.22;5050780;28;20481;-57
2023/09/26 04:23:16;;;;;;;0.87;0.57;;;;;;;-143.84;93.65;45117.63;5050722;28;21253;-57
2023/09/26 04:25:43;;;;;;;1.10;0.90;;;;;;;-143.84;93.73;45142.38;5050607;28;20495;-57
2023/09/26 04:28:11;;;;;;;0.90;0.70;;;;;;;-143.84;94.00;45146.19;5050760;28;21038;-57
2023/09/26 04:30:39;;;;;;;1.63;1.27;;;;;;;-143.84;94.06;45136.66;5050591;28;21274;-57
2023/09/26 04:33:07;;;;;;;0.93;0.70;;;;;;;-143.84;94.08;45130.94;5050587;28;20446;-57
2023/09/26 04:35:37;;;;;;;0.80;0.40;;;;;;;-143.84;94.41;45115.72;5050458;28;20452;-57
2023/09/26 04:38:05;;;;;;;0.90;0.50;;;;;;;-143.84;94.05;45130.94;5050386;28;20449;-57
2023/09/26 04:40:32;;;;;;;0.90;0.50;;;;;;;-143.84;93.93;45134.75;5050107;28;20531;-57
2023/09/26 04:43:01;;;;;;;1.10;0.70;;;;;;;-143.84;94.39;45134.75;5050411;28;20438;-57
2023/09/26 04:45:30;;;;;;;3.97;1.03;;;;;;;-143.84;94.36;45146.19;5050222;28;20520;-57
2023/09/26 04:48:01;;;;;;;0.93;0.70;;;;;;;-143.84;94.04;45110.00;5050218;28;20446;-57
2023/09/26 04:50:29;;;;;;;0.90;0.60;;;;;;;-143.84;93.88;45119.53;5050319;28;20446;-57
2023/09/26 04:52:59;;;;;;;0.90;0.70;;;;;;;-143.84;93.97;45117.63;5050027;28;20442;-57
2023/09/26 04:55:27;;;;;;;0.90;0.50;;;;;;;-143.84;93.81;45111.91;5050083;28;20438;-57
2023/09/26 04:57:54;;;;;;;0.90;0.60;;;;;;;-143.84;93.03;45134.75;5050045;28;20434;-57
2023/09/26 05:00:22;;;;;;;1.77;1.07;;;;;;;-143.84;92.91;45115.72;5050154;28;20486;-57
2023/09/26 05:02:52;;;;;;;0.90;0.60;;;;;;;-143.84;92.34;45119.53;5049905;28;20528;-57
2023/09/26 05:05:20;;;;;;;1.00;0.80;;;;;;;-143.84;91.77;45121.44;5050118;28;20448;-57
2023/09/26 05:07:48;;;;;;;1.00;0.80;;;;;;;-143.84;90.82;45127.13;5049694;28;20891;-57
2023/09/26 05:10:17;;;;;;;1.47;1.20;;;;;;;-143.84;89.64;45138.56;5049896;28;20449;-57
2023/09/26 05:12:44;;;;;;;0.90;0.70;;;;;;;-143.84;88.30;45073.81;5049584;28;20445;-57
2023/09/26 05:15:13;;;;;;;0.90;0.60;;;;;;;-143.84;87.04;45125.22;5049852;28;20452;-57
2023/09/26 05:17:46;;;;;;;1.00;0.90;;;;;;;-143.84;86.10;45121.44;5049779;28;20450;-57
2023/09/26 05:20:14;;;;;;;0.90;0.60;;;;;;;-143.84;84.98;45119.53;5068785;28;20493;-57
2023/09/26 05:22:43;;;;;;;1.00;0.70;;;;;;;-143.84;83.73;45085.25;5069444;28;20433;-57
2023/09/26 05:25:10;;;;;;;1.77;0.97;;;;;;;-143.84;82.24;45089.06;5069295;28;20499;-57
2023/09/26 05:27:40;;;;;;;1.00;0.80;;;;;;;-143.84;81.24;45077.63;5069488;28;20441;-57
2023/09/26 05:30:09;;;;;;;1.00;0.60;;;;;;;-143.84;79.80;45079.53;5069389;28;20946;-57
2023/09/26 05:32:36;;;;;;;1.20;0.97;;;;;;;-143.84;78.05;45081.44;5069796;28;20574;-57
2023/09/26 05:35:06;;;;;;;0.90;0.60;;;;;;;-143.84;76.53;45077.63;5069345;28;20440;-57
2023/09/26 05:37:33;;;;;;;0.90;0.63;;;;;;;-143.84;75.59;45115.72;5069104;28;21226;-57
2023/09/26 05:40:00;;;;;;;1.30;0.70;;;;;;;-143.84;74.75;45073.81;5069131;28;20480;-57
2023/09/26 05:42:27;;;;;;;1.00;0.67;;;;;;;-143.84;73.87;45054.78;5069186;28;20441;-57
2023/09/26 05:44:56;;;;;;;1.13;0.60;;;;;;;-143.84;72.86;45079.53;5069360;28;20443;-57
2023/09/26 05:47:23;;;;;;;0.90;0.57;;;;;;;-143.84;72.32;45079.53;5068995;28;20539;-57
2023/09/26 05:49:51;;;;;;;0.90;0.60;;;;;;;-143.84;71.77;45073.81;5069086;28;20429;-57
2023/09/26 05:52:20;;;;;;;1.00;0.60;;;;;;;-143.84;71.28;45062.41;5069187;28;20499;-57
2023/09/26 05:54:47;;;;;;;1.20;1.00;;;;;;;-143.84;70.26;45056.69;5068905;28;20509;-57
2023/09/26 05:57:15;;;;;;;1.47;0.77;;;;;;;-143.84;69.66;45066.22;5068858;28;21235;-57
2023/09/26 05:59:42;;;;;;;0.90;0.60;;;;;;;-143.84;70.59;45064.31;5069059;28;20502;-57
2023/09/26 06:02:12;;;;;;;1.00;0.60;;;;;;;-143.84;70.67;45039.53;5068539;28;20429;-57
2023/09/26 06:04:41;;;;;;;0.90;0.70;;;;;;;-143.84;69.81;45064.31;5069159;28;20436;-57
2023/09/26 06:07:09;;;;;;;1.10;0.70;;;;;;;-143.84;69.04;45073.81;5069111;28;20590;-57
2023/09/26 06:09:36;;;;;;;0.90;0.60;;;;;;;-143.84;68.21;45028.13;5068668;28;20946;-57
2023/09/26 06:12:04;;;;;;;1.63;1.07;;;;;;;-143.84;68.03;45050.97;5068749;28;20887;-57
2023/09/26 06:14:32;;;;;;;0.90;0.57;;;;;;;-143.84;67.04;45058.59;5068574;28;20441;-57
2023/09/26 06:16:59;;;;;;;0.90;0.60;;;;;;;-143.84;67.46;45054.78;5068545;28;20437;-58
2023/09/26 06:19:28;;;;;;;0.90;0.60;;;;;;;-143.84;67.58;45050.97;5068392;28;20485;-57
2023/09/26 06:21:55;;;;;;;1.00;0.80;;;;;;;-143.84;66.14;45058.59;5068769;28;20503;-57
2023/09/26 06:24:22;;;;;;;1.00;0.70;;;;;;;-143.84;66.02;45054.78;5068505;28;20437;-57
2023/09/26 06:26:50;;;;;;;0.90;0.50;;;;;;;-143.84;65.79;45060.50;5068064;28;20441;-57
2023/09/26 06:29:17;;;;;;;1.00;0.60;;;;;;;-143.84;64.28;45050.97;5068732;28;20441;-57
2023/09/26 06:31:45;;;;;;;1.00;0.70;;;;;;;-143.84;62.82;45018.59;5068689;28;20449;-57
2023/09/26 06:34:12;;;;;;;0.90;0.50;;;;;;;-143.84;63.01;45043.34;5068769;28;20858;-57
2023/09/26 06:36:41;;;;;;;0.90;0.60;;;;;;;-143.84;61.31;45054.78;5068637;28;20460;-57
2023/09/26 06:39:09;;;;;;;1.03;0.70;;;;;;;-143.84;60.80;45054.78;5069031;28;20439;-57
2023/09/26 06:41:36;;;;;;;1.23;0.63;;;;;;;-143.84;60.15;45037.66;5068000;28;20563;-58
2023/09/26 06:44:03;;;;;;;1.33;1.23;;;;;;;-143.84;60.29;45037.66;5068513;28;20933;-58
2023/09/26 06:46:30;;;;;;;0.90;0.57;;;;;;;-143.84;58.78;45026.22;5068226;28;20432;-58
2023/09/26 06:48:57;;;;;;;0.90;0.60;;;;;;;-143.84;58.00;45037.66;5068333;28;20433;-58
2023/09/26 06:51:25;;;;;;;0.80;0.57;;;;;;;-143.84;57.39;45033.84;5068425;28;20441;-57
2023/09/26 06:53:53;;;;;;;1.53;0.50;;;;;;;-143.84;58.28;45022.41;5068288;28;20431;-58
2023/09/26 06:56:22;;;;;;;0.90;0.47;;;;;;;-143.84;57.52;45041.44;5068159;28;20471;-57
2023/09/26 06:58:49;;;;;;;0.90;0.70;;;;;;;-143.84;57.12;45052.88;5068275;28;20448;-57
2023/09/26 07:01:18;;;;;;;1.20;0.57;;;;;;;-143.84;56.42;45043.34;5068000;28;20484;-58
2023/09/26 07:03:45;;;;;;;1.20;0.87;;;;;;;-143.84;56.42;45024.31;5068081;28;20441;-58
2023/09/26 07:06:14;;;;;;;3.40;0.70;;;;;;;-143.84;53.85;45026.22;5068227;28;20511;-58
2023/09/26 07:08:43;;;;;;;0.90;0.50;;;;;;;-143.84;53.21;45007.19;5068112;28;20441;-58
2023/09/26 07:11:11;;;;;;;0.90;0.63;;;;;;;-143.84;54.15;45018.59;5067936;28;20437;-58
2023/09/26 07:13:39;;;;;;;0.80;0.40;;;;;;;-143.84;51.61;45007.19;5068210;28;20456;-57
2023/09/26 07:16:08;;;;;;;1.00;0.90;;;;;;;-143.84;51.21;45009.09;5067588;28;20448;-58
2023/09/26 07:18:37;;;;;;;0.87;0.53;;;;;;;-143.84;49.48;44990.03;5067827;28;20498;-58
2023/09/26 07:21:06;;;;;;;1.00;0.87;;;;;;;-143.84;49.57;45018.59;5067633;28;20538;-58
2023/09/26 07:23:34;;;;;;;0.90;0.50;;;;;;;-143.84;47.71;44999.56;5067433;28;20433;-58
2023/09/26 07:26:09;;;;;;;1.93;0.77;;;;;;;-143.84;48.06;44986.22;5067699;28;20444;-58
2023/09/26 07:28:38;;;;;;;1.53;0.93;;;;;;;-143.84;47.62;44988.13;5067500;28;20531;-58
2023/09/26 07:31:05;;;;;;;0.87;0.53;;;;;;;-143.84;46.04;45005.28;5067553;28;20866;-58
2023/09/26 07:33:33;;;;;;;0.90;0.73;;;;;;;-143.84;45.89;44995.75;5067291;28;20483;-58
2023/09/26 07:36:00;;;;;;;0.90;0.50;;;;;;;-143.84;45.97;44976.72;5068297;28;20437;-58
2023/09/26 07:38:28;;;;;;;1.00;0.60;;;;;;;-143.84;46.06;45007.19;5071439;28;20511;-57
2023/09/26 07:40:55;;;;;;;1.00;0.60;;;;;;;-143.84;44.44;44997.66;5071476;28;20484;-57
2023/09/26 07:43:22;;;;;;;0.80;0.47;;;;;;;-143.84;44.12;44990.03;5071568;28;20502;-58
2023/09/26 07:45:51;;;;;;;1.40;0.70;;;;;;;-143.84;43.12;44991.94;5071479;28;20441;-58
2023/09/26 07:48:18;;;;;;;1.10;0.73;;;;;;;-143.84;42.48;44988.13;5071358;28;20444;-58
2023/09/26 07:50:45;;;;;;;0.90;0.63;;;;;;;-143.84;42.56;45001.47;5071710;28;20432;-57
2023/09/26 07:53:12;;;;;;;1.00;0.50;;;;;;;-143.84;41.74;44997.66;5071175;28;20440;-58
2023/09/26 07:55:39;;;;;;;0.90;0.60;;;;;;;-143.84;42.18;44980.53;5071495;28;20451;-58
2023/09/26 07:58:07;;;;;;;1.50;0.90;;;;;;;-143.84;41.52;44965.28;5071164;28;20449;-58
2023/09/26 08:00:35;;;;;;;1.00;0.70;;;;;;;-143.84;41.46;44993.84;5071073;28;20577;-58
2023/09/26 08:03:04;;;;;;;0.90;0.60;;;;;;;-143.84;41.04;44986.22;5071103;28;20437;-58
2023/09/26 08:05:31;;;;;;;0.93;0.70;;;;;;;-143.84;40.74;44986.22;5071513;28;20451;-58
2023/09/26 08:08:03;;;;;;;1.67;0.80;;;;;;;-143.84;40.29;44974.81;5071022;28;20445;-58
2023/09/26 08:10:30;;;;;;;1.20;0.80;;;;;;;-143.84;41.19;44980.53;5071107;28;20878;-58
2023/09/26 08:12:57;;;;;;;1.70;1.00;;;;;;;-143.84;41.00;44972.91;5070886;28;20491;-58
2023/09/26 08:15:25;;;;;;;1.40;1.00;;;;;;;-143.84;41.08;44969.09;5070822;28;20437;-58
2023/09/26 08:17:52;;;;;;;1.00;0.53;;;;;;;-143.84;41.28;44965.28;5070571;28;20460;-58
2023/09/26 08:20:20;;;;;;;1.00;0.63;;;;;;;-143.84;42.07;44967.19;5070831;28;20440;-58
2023/09/26 08:22:48;;;;;;;1.40;0.87;;;;;;;-143.84;42.51;44961.47;5070927;28;20448;-58
2023/09/26 08:25:15;;;;;;;1.00;0.80;;;;;;;-143.84;42.43;44955.75;5070610;28;20441;-58
2023/09/26 08:27:42;;;;;;;0.87;0.50;;;;;;;-143.84;42.77;44955.75;5070713;28;20433;-58
2023/09/26 08:30:11;;;;;;;1.00;0.60;;;;;;;-143.84;44.19;44976.72;5070490;28;20445;-58
2023/09/26 08:32:38;;;;;;;0.90;0.50;;;;;;;-143.84;42.72;44957.66;5070306;28;21270;-58
2023/09/26 08:35:06;;;;;;;1.00;0.80;;;;;;;-143.84;42.44;44972.91;5070502;28;20445;-58
2023/09/26 08:37:36;;;;;;;1.00;0.73;;;;;;;-143.84;44.30;44980.53;5070676;28;20846;-58
2023/09/26 08:40:05;;;;;;;1.83;1.20;;;;;;;-143.84;43.68;44931.00;5070421;28;20441;-58
2023/09/26 08:42:36;;;;;;;0.93;0.50;;;;;;;-143.84;43.56;44953.88;5070301;28;20481;-58
2023/09/26 08:45:05;;;;;;;0.90;0.50;;;;;;;-143.84;43.37;44963.38;5070309;28;20448;-58
2023/09/26 08:47:33;;;;;;;0.90;0.60;;;;;;;-143.84;43.45;44978.63;5070263;28;20559;-58
2023/09/26 08:50:01;;;;;;;0.90;0.50;;;;;;;-143.84;42.84;44961.47;5069899;28;20447;-58
2023/09/26 08:52:28;;;;;;;0.97;0.63;;;;;;;-143.84;43.38;44946.25;5070359;28;20943;-58
2023/09/26 08:54:57;;;;;;;3.63;0.67;;;;;;;-143.84;43.58;44990.03;5070233;28;20829;-58
2023/09/26 08:57:24;;;;;;;0.80;0.50;;;;;;;-143.84;43.04;44971.00;5070376;28;20441;-58
2023/09/26 08:59:55;;;;;;;1.40;1.07;;;;;;;-143.84;42.82;44931.00;5070109;28;20444;-58
2023/09/26 09:02:22;;;;;;;1.10;0.73;;;;;;;-143.84;43.62;44953.88;5069933;28;20530;-58
2023/09/26 09:04:49;;;;;;;1.10;0.87;;;;;;;-143.84;43.59;44969.09;5069981;28;20441;-58
2023/09/26 09:07:16;;;;;;;1.00;0.63;;;;;;;-143.84;43.70;44929.09;5070020;28;20437;-58
2023/09/26 09:10:07;;;;;;;1.10;0.70;;;;;;;-143.84;43.94;44955.75;5069679;28;20448;-58
2023/09/26 09:12:37;;;;;;;1.00;0.90;;;;;;;-143.84;44.34;44957.66;5069957;28;20449;-58
2023/09/26 09:15:19;;;;;;;0.93;0.53;;;;;;;-143.84;43.78;44969.09;5069588;28;20441;-57
2023/09/26 09:17:47;;;;;;;0.80;0.40;;;;;;;-143.84;44.28;44990.03;5069740;28;20464;-57
2023/09/26 09:20:16;;;;;;;0.90;0.60;;;;;;;-143.84;44.54;44980.53;5069774;28;20491;-58
2023/09/26 09:22:46;;;;;;;0.90;0.60;;;;;;;-143.84;44.12;44957.66;5069488;28;21022;-58
2023/09/26 09:25:16;;;;;;;1.23;0.60;;;;;;;-143.84;42.99;44942.44;5069600;28;20441;-58
2023/09/26 09:27:44;;;;;;;1.00;0.60;;;;;;;-143.84;42.86;44969.09;5069653;28;20473;-57
2023/09/26 09:30:14;;;;;;;1.30;0.80;;;;;;;-143.84;42.65;44980.53;5069232;28;20445;-58
2023/09/26 09:32:43;;;;;;;1.00;0.80;;;;;;;-143.84;42.71;44980.53;5069624;28;20453;-58
2023/09/26 09:35:11;;;;;;;0.90;0.50;;;;;;;-143.84;42.75;44974.81;5069555;28;20522;-58
2023/09/26 09:37:38;;;;;;;1.10;1.00;;;;;;;-143.84;41.77;44957.66;5069303;28;20445;-57
2023/09/26 09:40:06;;;;;;;1.00;0.50;;;;;;;-143.84;42.31;44948.16;5069133;28;20963;-58
2023/09/26 09:42:35;;;;;;;0.90;0.50;;;;;;;-143.84;42.31;44976.72;5069110;28;20476;-58
2023/09/26 09:45:04;;;;;;;3.13;0.50;;;;;;;-143.84;43.25;44951.97;5069121;28;20460;-58
2023/09/26 09:47:34;;;;;;;1.00;0.60;;;;;;;-143.84;42.88;44980.53;5069500;28;20468;-58
2023/09/26 09:50:02;;;;;;;1.30;0.60;;;;;;;-143.84;42.56;44932.91;5068945;28;20483;-58
2023/09/26 09:52:31;;;;;;;0.90;0.50;;;;;;;-143.84;43.49;44959.56;5068985;28;20798;-58
2023/09/26 09:55:03;;;;;;;0.90;0.50;;;;;;;-143.84;41.78;44932.91;5068991;28;20451;-58
2023/09/26 09:57:37;;;;;;;1.93;0.53;;;;;;;-143.84;41.96;44959.56;5069019;28;20440;-58
2023/09/26 10:00:07;;;;;;;0.90;0.67;;;;;;;-143.84;41.95;44951.97;5068398;28;20591;-58
2023/09/26 10:02:35;;;;;;;0.90;0.40;;;;;;;-143.84;41.45;44976.72;5068874;28;20554;-58
2023/09/26 10:05:06;;;;;;;1.00;0.70;;;;;;;-143.84;42.99;45001.47;5068809;28;20472;-58
2023/09/26 10:07:35;;;;;;;1.00;0.57;;;;;;;-143.84;42.28;44967.19;5068988;28;20490;-58
2023/09/26 10:10:03;;;;;;;0.90;0.47;;;;;;;-143.84;42.00;44938.63;5068710;28;21284;-58
2023/09/26 10:12:31;;;;;;;1.00;0.63;;;;;;;-143.84;42.02;44961.47;5068849;28;20441;-58
2023/09/26 10:15:00;;;;;;;0.90;0.60;;;;;;;-143.84;41.59;44965.28;5068864;28;20467;-58
2023/09/26 10:17:27;;;;;;;1.27;0.50;;;;;;;-143.84;41.96;44972.91;5069046;28;20998;-58
2023/09/26 10:19:56;;;;;;;1.17;0.90;;;;;;;-143.84;41.42;44986.22;5068595;28;20558;-58
2023/09/26 10:22:33;;;;;;;0.80;0.40;;;;;;;-143.84;41.95;44959.56;5068867;28;20486;-58
2023/09/26 10:25:01;;;;;;;1.17;0.50;;;;;;;-143.84;40.99;44971.00;5068441;28;20448;-58
2023/09/26 10:27:42;;;;;;;0.87;0.47;;;;;;;-143.84;41.31;44980.53;5068695;28;20459;-58
2023/09/26 10:30:12;;;;;;;0.90;0.50;;;;;;;-143.84;40.47;44980.53;5068399;28;20448;-58
2023/09/26 10:32:41;;;;;;;0.80;0.50;;;;;;;-143.84;40.14;44967.19;5068433;28;20507;-58
2023/09/26 10:35:30;;;;;;;0.90;0.50;;;;;;;-143.84;39.69;44967.19;5068548;28;20468;-58
2023/09/26 10:38:11;;;;;;;0.80;0.43;;;;;;;-143.84;40.59;44980.53;5068622;28;20448;-58
2023/09/26 10:40:39;;;;;;;1.10;0.70;;;;;;;-143.84;40.93;44976.72;5068565;28;20494;-58
2023/09/26 10:43:06;;;;;;;0.90;0.73;;;;;;;-143.84;40.17;44969.09;5068330;28;20480;-58
2023/09/26 10:45:35;;;;;;;1.00;0.60;;;;;;;-143.84;40.25;44972.91;5068424;28;20477;-58
2023/09/26 10:48:06;;;;;;;1.10;0.60;;;;;;;-143.84;39.81;45026.22;5068365;28;21010;-58
2023/09/26 10:50:33;;;;;;;0.90;0.50;;;;;;;-143.84;39.73;44988.13;5068617;28;20445;-58
2023/09/26 10:53:00;;;;;;;1.00;0.70;;;;;;;-143.84;38.73;44961.47;5068369;28;20949;-58
2023/09/26 10:55:27;;;;;;;0.80;0.50;;;;;;;-143.84;39.12;45012.88;5068345;28;20436;-58
2023/09/26 10:57:56;;;;;;;0.90;0.60;;;;;;;-143.84;39.42;44982.41;5068142;28;20448;-58
2023/09/26 11:00:23;;;;;;;0.80;0.40;;;;;;;-143.84;40.20;44976.72;5068293;28;20502;-58
2023/09/26 11:02:52;;;;;;;1.10;0.80;;;;;;;-143.84;39.94;44993.84;5068129;28;20481;-58
2023/09/26 11:05:19;;;;;;;0.97;0.73;;;;;;;-143.84;38.96;44993.84;5068242;28;20507;-58
2023/09/26 11:07:46;;;;;;;0.80;0.50;;;;;;;-143.84;38.82;44974.81;5068418;28;20441;-58
2023/09/26 11:10:14;;;;;;;1.20;0.70;;;;;;;-143.84;38.29;44953.88;5068344;28;20857;-58
2023/09/26 11:12:42;;;;;;;1.00;0.60;;;;;;;-143.84;38.54;45009.09;5071273;28;20921;-58
2023/09/26 11:15:10;;;;;;;1.00;0.60;;;;;;;-143.84;39.04;44976.72;5072066;28;20778;-58
2023/09/26 11:17:37;;;;;;;0.90;0.67;;;;;;;-143.84;38.17;44972.91;5072066;28;20476;-58
2023/09/26 11:20:11;;;;;;;0.90;0.60;;;;;;;-143.84;38.07;44978.63;5071848;28;21134;-58
2023/09/26 11:22:46;;;;;;;1.00;0.67;;;;;;;-143.84;37.21;44999.56;5071972;28;20483;-58